Time;durP1;ratioP1;P1;durP2;ratioP2;P2;SDS_P1;SDS_P2;PMS_P1;PMS_P2;Temp;Humidity;BMP_temperature;BMP_pressure;BME280_temperature;BME280_humidity;BME280_pressure;Samples;Min_cycle;Max_cycle;Signal;HPM_P1;HPM_P2
2021/07/16 00:00:22;;;;;;;4.72;1.00;;;19.00;74.20;;;;;;5092697;28;20042;-58
2021/07/16 00:02:52;;;;;;;2.00;0.90;;;19.20;74.40;;;;;;5092892;28;20542;-59
2021/07/16 00:05:20;;;;;;;2.88;0.82;;;19.10;74.30;;;;;;5092999;28;20036;-58
2021/07/16 00:07:47;;;;;;;1.27;0.70;;;19.40;73.90;;;;;;5092441;28;20039;-58
2021/07/16 00:10:18;;;;;;;1.35;0.77;;;19.30;73.40;;;;;;5092626;28;20149;-60
2021/07/16 00:12:47;;;;;;;2.53;0.80;;;19.30;73.10;;;;;;5074399;28;20086;-57
2021/07/16 00:15:15;;;;;;;2.38;1.35;;;19.40;73.40;;;;;;5092350;28;20038;-58
2021/07/16 00:17:43;;;;;;;2.63;0.90;;;19.30;73.70;;;;;;5092328;28;20034;-58
2021/07/16 00:20:11;;;;;;;2.50;0.70;;;19.60;71.20;;;;;;5093122;28;20690;-56
2021/07/16 00:22:39;;;;;;;1.35;0.70;;;19.80;69.40;;;;;;5092790;28;20553;-57
2021/07/16 00:25:09;;;;;;;1.42;0.80;;;19.80;70.90;;;;;;5103149;28;20030;-58
2021/07/16 00:27:36;;;;;;;5.90;0.90;;;19.90;71.90;;;;;;5112448;28;20085;-52
2021/07/16 00:30:07;;;;;;;3.63;0.90;;;19.90;71.70;;;;;;5112175;28;20539;-56
2021/07/16 00:32:35;;;;;;;1.45;0.77;;;20.10;70.30;;;;;;5093210;28;20040;-52
2021/07/16 00:35:02;;;;;;;1.42;0.90;;;20.00;70.60;;;;;;5109325;28;20024;-58
2021/07/16 00:37:30;;;;;;;1.27;0.80;;;20.20;70.00;;;;;;5112200;28;20035;-59
2021/07/16 00:39:57;;;;;;;0.80;0.57;;;20.30;68.70;;;;;;5112183;28;20039;-63
2021/07/16 00:42:25;;;;;;;1.75;0.85;;;20.10;69.90;;;;;;5112134;28;20110;-61
2021/07/16 00:44:52;;;;;;;2.08;0.60;;;20.20;70.10;;;;;;5112550;28;20031;-62
2021/07/16 00:47:19;;;;;;;1.30;0.63;;;20.40;69.50;;;;;;5111541;28;20068;-58
2021/07/16 00:49:47;;;;;;;1.00;0.57;;;20.30;69.70;;;;;;5093323;28;20040;-59
2021/07/16 00:52:14;;;;;;;0.82;0.60;;;20.40;68.70;;;;;;5099312;28;20048;-58
2021/07/16 00:54:42;;;;;;;1.33;0.80;;;20.40;69.30;;;;;;5101031;28;20032;-60
2021/07/16 00:57:09;;;;;;;1.30;0.40;;;20.50;68.30;;;;;;5084217;28;20048;-61
2021/07/16 00:59:38;;;;;;;0.52;0.30;;;20.60;67.10;;;;;;5094943;28;20039;-60
2021/07/16 01:02:05;;;;;;;1.35;0.50;;;20.50;68.20;;;;;;5100617;28;20488;-61
2021/07/16 01:04:33;;;;;;;4.57;0.63;;;20.60;68.70;;;;;;5098755;28;20028;-65
2021/07/16 01:07:02;;;;;;;0.60;0.35;;;20.60;68.10;;;;;;5097857;28;20514;-60
2021/07/16 01:09:30;;;;;;;1.08;0.40;;;20.70;66.30;;;;;;5096686;28;20059;-60
2021/07/16 01:11:57;;;;;;;1.95;0.45;;;20.70;64.80;;;;;;5100153;28;20790;-60
2021/07/16 01:14:25;;;;;;;3.72;0.50;;;20.70;67.70;;;;;;5103907;28;20027;-60
2021/07/16 01:16:52;;;;;;;2.80;0.63;;;20.80;67.00;;;;;;5098637;28;20118;-64
2021/07/16 01:19:47;;;;;;;4.53;0.93;;;21.00;65.20;;;;;;5100772;28;20024;-62
2021/07/16 01:22:16;;;;;;;3.00;0.50;;;20.90;66.10;;;;;;5079532;28;20063;-61
2021/07/16 01:24:45;;;;;;;9.10;1.00;;;20.80;67.70;;;;;;5104932;28;20019;-59
2021/07/16 01:27:12;;;;;;;8.52;1.60;;;20.60;66.60;;;;;;5101103;28;20086;-59
2021/07/16 01:29:40;;;;;;;1.02;0.50;;;20.60;68.20;;;;;;5097526;28;20043;-60
2021/07/16 01:32:08;;;;;;;0.88;0.50;;;20.60;65.30;;;;;;5098596;28;20036;-61
2021/07/16 01:34:37;;;;;;;5.82;0.80;;;20.60;68.60;;;;;;5096928;28;20057;-61
2021/07/16 01:37:06;;;;;;;2.03;0.60;;;20.70;68.10;;;;;;5099918;28;20047;-62
2021/07/16 01:39:34;;;;;;;2.88;0.60;;;20.70;65.20;;;;;;5096135;28;20120;-57
2021/07/16 01:42:04;;;;;;;1.00;0.52;;;20.70;67.40;;;;;;5100762;28;20059;-62
2021/07/16 01:44:32;;;;;;;2.88;0.60;;;20.80;66.00;;;;;;5098009;28;20096;-61
2021/07/16 01:47:00;;;;;;;1.98;0.43;;;20.90;67.80;;;;;;5101297;28;20106;-61
2021/07/16 01:49:28;;;;;;;1.02;0.55;;;20.90;67.00;;;;;;5092881;28;20042;-62
2021/07/16 01:51:56;;;;;;;3.70;0.60;;;21.00;67.20;;;;;;5096974;28;20181;-61
2021/07/16 01:54:23;;;;;;;0.60;0.60;;;21.00;63.90;;;;;;5096962;28;20024;-65
2021/07/16 01:56:52;;;;;;;1.10;0.40;;;21.00;67.00;;;;;;5101185;28;20565;-62
2021/07/16 01:59:19;;;;;;;1.48;0.32;;;21.00;66.80;;;;;;5095847;28;20140;-60
2021/07/16 02:01:46;;;;;;;1.35;0.28;;;21.00;64.10;;;;;;5098198;28;20027;-61
2021/07/16 02:04:14;;;;;;;1.55;0.40;;;21.20;66.60;;;;;;5090694;28;20036;-61
2021/07/16 02:06:41;;;;;;;5.03;0.63;;;21.20;66.20;;;;;;5090217;28;20032;-60
2021/07/16 02:09:09;;;;;;;3.53;0.50;;;21.10;65.50;;;;;;5090458;28;20047;-60
2021/07/16 02:11:37;;;;;;;2.47;0.50;;;21.00;63.10;;;;;;5090617;28;20036;-62
2021/07/16 02:14:05;;;;;;;4.18;0.40;;;20.90;63.30;;;;;;5090444;28;20032;-61
2021/07/16 02:16:32;;;;;;;1.10;0.50;;;20.80;64.00;;;;;;5090133;28;20028;-61
2021/07/16 02:18:59;;;;;;;1.13;0.55;;;20.60;64.40;;;;;;5088669;28;20490;-61
2021/07/16 02:21:27;;;;;;;6.28;0.95;;;20.40;66.50;;;;;;5089801;28;20081;-60
2021/07/16 02:23:54;;;;;;;1.55;0.77;;;20.10;66.20;;;;;;5090034;28;20035;-63
2021/07/16 02:26:21;;;;;;;16.38;2.08;;;19.80;66.20;;;;;;5089776;28;20090;-60
2021/07/16 02:28:49;;;;;;;6.82;1.55;;;19.60;69.00;;;;;;5089845;28;20131;-60
2021/07/16 02:31:16;;;;;;;2.17;0.60;;;19.40;70.30;;;;;;5089575;28;20501;-62
2021/07/16 02:33:43;;;;;;;3.42;0.90;;;19.10;70.60;;;;;;5090110;28;20051;-63
2021/07/16 02:36:11;;;;;;;4.40;0.90;;;19.00;72.00;;;;;;5092897;28;20027;-56
2021/07/16 02:38:39;;;;;;;4.18;1.05;;;18.90;73.40;;;;;;5105384;28;20050;-58
2021/07/16 02:41:06;;;;;;;5.80;1.05;;;18.70;74.50;;;;;;5079947;28;20016;-58
2021/07/16 02:43:35;;;;;;;3.08;0.93;;;18.50;75.10;;;;;;5100313;28;20039;-60
2021/07/16 02:46:04;;;;;;;2.13;0.63;;;18.40;74.20;;;;;;5099650;28;20043;-57
2021/07/16 02:48:31;;;;;;;1.48;0.50;;;18.30;77.80;;;;;;5079876;28;20035;-60
2021/07/16 02:51:01;;;;;;;4.32;0.77;;;18.20;77.60;;;;;;5081951;28;20386;-54
2021/07/16 02:53:29;;;;;;;3.53;1.20;;;18.10;77.50;;;;;;5099002;28;20023;-59
2021/07/16 02:55:56;;;;;;;1.95;0.90;;;18.00;77.30;;;;;;5093278;28;20023;-59
2021/07/16 02:58:23;;;;;;;2.47;0.93;;;18.00;78.10;;;;;;5098642;28;20027;-60
2021/07/16 03:00:51;;;;;;;6.80;1.00;;;17.90;78.70;;;;;;5102671;28;20035;-53
2021/07/16 03:03:18;;;;;;;1.98;1.02;;;18.00;78.70;;;;;;5078388;28;20869;-51
2021/07/16 03:05:46;;;;;;;2.50;1.33;;;18.10;80.80;;;;;;5095634;28;20111;-56
2021/07/16 03:08:13;;;;;;;5.90;0.80;;;18.30;80.10;;;;;;5098719;28;20046;-56
2021/07/16 03:10:43;;;;;;;2.53;0.57;;;18.50;79.20;;;;;;5095698;28;20036;-57
2021/07/16 03:13:17;;;;;;;4.97;1.10;;;18.70;78.60;;;;;;5097587;28;20035;-57
2021/07/16 03:15:45;;;;;;;6.40;0.90;;;19.10;77.80;;;;;;5096329;28;20039;-56
2021/07/16 03:18:13;;;;;;;3.50;1.35;;;19.30;76.20;;;;;;5102724;28;20028;-51
2021/07/16 03:20:42;;;;;;;5.72;1.33;;;19.50;74.20;;;;;;5096405;28;20096;-56
2021/07/16 03:23:11;;;;;;;2.65;1.20;;;19.70;74.60;;;;;;5097095;28;20054;-58
2021/07/16 03:25:39;;;;;;;0.63;0.50;;;19.90;72.70;;;;;;5099969;28;20028;-59
2021/07/16 03:28:08;;;;;;;3.90;0.70;;;20.00;71.00;;;;;;5098149;28;20054;-59
2021/07/16 03:30:36;;;;;;;1.85;1.00;;;20.20;71.80;;;;;;5102380;28;20043;-58
2021/07/16 03:33:04;;;;;;;0.98;0.63;;;20.30;71.30;;;;;;5097624;28;20035;-59
2021/07/16 03:35:31;;;;;;;5.85;1.08;;;20.30;70.80;;;;;;5099277;28;20190;-57
2021/07/16 03:37:59;;;;;;;2.63;0.70;;;20.50;70.20;;;;;;5097783;28;20439;-60
2021/07/16 03:40:28;;;;;;;1.30;0.68;;;20.60;68.80;;;;;;5097943;28;20089;-53
2021/07/16 03:42:58;;;;;;;2.10;0.68;;;20.50;67.70;;;;;;5092645;28;20061;-57
2021/07/16 03:45:25;;;;;;;1.90;0.70;;;20.40;68.70;;;;;;5095070;28;20043;-58
2021/07/16 03:47:53;;;;;;;1.05;0.43;;;20.40;69.60;;;;;;5098514;28;20786;-56
2021/07/16 03:50:21;;;;;;;2.25;0.90;;;20.40;68.70;;;;;;5099650;28;20039;-56
2021/07/16 03:52:51;;;;;;;4.20;0.70;;;20.40;69.60;;;;;;5097241;28;20398;-58
2021/07/16 03:55:18;;;;;;;3.90;0.90;;;20.30;68.00;;;;;;5093953;28;20062;-59
2021/07/16 03:57:48;;;;;;;3.33;0.70;;;20.20;68.70;;;;;;5076015;28;20398;-59
2021/07/16 04:00:25;;;;;;;1.00;0.70;;;20.20;68.50;;;;;;5098508;28;20403;-55
2021/07/16 04:02:52;;;;;;;2.42;0.60;;;20.10;71.20;;;;;;5101325;28;20053;-59
2021/07/16 04:05:23;;;;;;;1.13;0.50;;;20.10;70.40;;;;;;5090688;28;20094;-60
2021/07/16 04:07:52;;;;;;;0.40;0.40;;;20.10;71.10;;;;;;5108792;28;20028;-54
2021/07/16 04:10:22;;;;;;;1.77;0.60;;;20.20;70.80;;;;;;5108227;28;20036;-60
2021/07/16 04:12:58;;;;;;;2.55;0.68;;;20.20;68.90;;;;;;5108720;28;20490;-58
2021/07/16 04:15:26;;;;;;;0.93;0.60;;;20.20;70.90;;;;;;5108772;28;20390;-58
2021/07/16 04:17:57;;;;;;;2.17;0.88;;;20.20;69.60;;;;;;5108830;28;20374;-56
2021/07/16 04:20:26;;;;;;;1.45;0.45;;;20.30;70.00;;;;;;5109354;28;20059;-57
2021/07/16 04:22:55;;;;;;;2.53;0.38;;;20.30;69.30;;;;;;5108928;28;20068;-57
2021/07/16 04:25:22;;;;;;;1.10;0.50;;;20.40;68.90;;;;;;5109284;28;20039;-57
2021/07/16 04:27:51;;;;;;;3.75;0.50;;;20.50;69.70;;;;;;5108957;28;20047;-58
2021/07/16 04:30:21;;;;;;;0.75;0.47;;;20.50;67.80;;;;;;5108362;28;20458;-55
2021/07/16 04:32:51;;;;;;;3.92;0.70;;;20.60;69.40;;;;;;5109222;28;20030;-57
2021/07/16 04:35:18;;;;;;;4.05;0.50;;;20.60;66.90;;;;;;5109398;28;20530;-56
2021/07/16 04:37:46;;;;;;;1.52;0.50;;;20.70;66.80;;;;;;5108649;28;20127;-52
2021/07/16 04:40:16;;;;;;;0.70;0.50;;;20.70;64.40;;;;;;5108809;28;20394;-55
2021/07/16 04:42:45;;;;;;;1.98;0.30;;;20.70;67.10;;;;;;5110037;28;20046;-54
2021/07/16 04:45:13;;;;;;;0.73;0.40;;;20.80;65.10;;;;;;5112440;28;20070;-51
2021/07/16 04:47:41;;;;;;;0.68;0.40;;;20.90;65.00;;;;;;5112480;28;20418;-51
2021/07/16 04:50:10;;;;;;;1.73;0.40;;;21.00;63.70;;;;;;5093910;28;20039;-51
2021/07/16 04:52:46;;;;;;;0.60;0.40;;;20.90;66.50;;;;;;5094673;28;20426;-55
2021/07/16 04:55:14;;;;;;;0.77;0.40;;;20.90;66.10;;;;;;5112412;28;20028;-53
2021/07/16 04:57:42;;;;;;;0.90;0.40;;;21.00;65.40;;;;;;5112248;28;20027;-50
2021/07/16 05:00:11;;;;;;;0.57;0.38;;;21.00;66.50;;;;;;5112215;28;20031;-50
2021/07/16 05:02:38;;;;;;;3.63;0.43;;;21.10;64.60;;;;;;5112554;28;20480;-55
2021/07/16 05:05:06;;;;;;;1.95;0.20;;;21.00;63.10;;;;;;5111889;28;20035;-48
2021/07/16 05:07:34;;;;;;;2.45;0.95;;;20.90;66.00;;;;;;5112087;28;20351;-54
2021/07/16 05:10:03;;;;;;;17.45;1.58;;;20.80;66.50;;;;;;5093752;28;20104;-50
2021/07/16 05:12:30;;;;;;;2.30;0.40;;;20.80;63.90;;;;;;5112024;28;20028;-51
2021/07/16 05:14:58;;;;;;;3.00;0.75;;;20.80;66.10;;;;;;5112108;28;20067;-52
2021/07/16 05:17:25;;;;;;;8.35;0.70;;;20.80;64.50;;;;;;5112237;28;20030;-57
2021/07/16 05:19:53;;;;;;;6.68;0.95;;;20.70;66.30;;;;;;5112019;28;20115;-54
2021/07/16 05:22:20;;;;;;;3.10;0.85;;;20.70;64.10;;;;;;5112528;28;20043;-51
2021/07/16 05:24:48;;;;;;;10.18;1.02;;;20.60;64.70;;;;;;5112393;28;20404;-55
2021/07/16 05:27:18;;;;;;;9.18;0.65;;;20.50;63.00;;;;;;5111349;28;20051;-55
2021/07/16 05:29:45;;;;;;;4.65;0.88;;;20.30;65.40;;;;;;5111841;28;20061;-56
2021/07/16 05:32:13;;;;;;;3.20;0.60;;;20.30;64.90;;;;;;5111265;28;20115;-58
2021/07/16 05:34:40;;;;;;;4.25;0.68;;;20.30;64.70;;;;;;5111822;28;20027;-54
2021/07/16 05:37:08;;;;;;;2.80;0.45;;;20.20;63.80;;;;;;5110803;28;20121;-60
2021/07/16 05:39:36;;;;;;;10.45;0.88;;;20.30;66.10;;;;;;5112290;28;20142;-55
2021/07/16 05:42:04;;;;;;;4.53;1.05;;;20.10;65.20;;;;;;5108302;28;20027;-57
2021/07/16 05:44:33;;;;;;;4.90;0.70;;;20.10;65.20;;;;;;5111047;28;20027;-55
2021/07/16 05:47:00;;;;;;;2.05;0.43;;;20.00;64.60;;;;;;5111240;28;20023;-59
2021/07/16 05:49:28;;;;;;;3.97;0.93;;;19.90;65.40;;;;;;5111500;28;20039;-57
2021/07/16 05:51:55;;;;;;;3.10;0.70;;;19.80;63.10;;;;;;5111200;28;20023;-55
2021/07/16 05:54:23;;;;;;;2.90;0.63;;;19.60;63.80;;;;;;5110843;28;20389;-54
2021/07/16 05:56:51;;;;;;;4.88;0.45;;;19.50;65.10;;;;;;5111050;28;20027;-56
2021/07/16 05:59:20;;;;;;;5.72;0.90;;;19.30;64.80;;;;;;5093189;28;20069;-56
2021/07/16 06:01:47;;;;;;;2.38;0.50;;;19.10;66.80;;;;;;5111153;28;20032;-57
2021/07/16 06:04:14;;;;;;;3.67;0.50;;;19.00;66.30;;;;;;5110790;28;20027;-54
2021/07/16 06:06:42;;;;;;;5.07;1.00;;;18.90;68.60;;;;;;5110873;28;20138;-57
2021/07/16 06:09:09;;;;;;;3.20;0.90;;;18.80;66.60;;;;;;5110466;28;20490;-59
2021/07/16 06:11:37;;;;;;;1.88;0.45;;;18.60;70.10;;;;;;5107116;28;20040;-56
2021/07/16 06:14:05;;;;;;;2.67;0.65;;;18.50;69.70;;;;;;5105268;28;20482;-61
2021/07/16 06:16:33;;;;;;;3.55;0.73;;;18.50;70.20;;;;;;5104505;28;20164;-56
2021/07/16 06:19:00;;;;;;;2.65;0.55;;;18.40;71.60;;;;;;5106315;28;20023;-58
2021/07/16 06:21:28;;;;;;;4.20;0.55;;;18.30;70.70;;;;;;5073502;28;20572;-54
2021/07/16 06:23:55;;;;;;;5.13;0.68;;;18.30;71.50;;;;;;5086455;28;20067;-59
2021/07/16 06:26:23;;;;;;;3.92;0.63;;;18.20;71.50;;;;;;5103268;28;20019;-59
2021/07/16 06:28:50;;;;;;;3.15;0.40;;;18.10;72.80;;;;;;5105795;28;20144;-59
2021/07/16 06:31:19;;;;;;;3.40;0.68;;;18.00;72.30;;;;;;5105579;28;20019;-56
2021/07/16 06:33:46;;;;;;;2.00;0.60;;;17.90;72.40;;;;;;5087689;28;20032;-61
2021/07/16 06:36:14;;;;;;;2.30;0.70;;;17.90;73.00;;;;;;5105578;28;20034;-61
2021/07/16 06:38:42;;;;;;;6.47;0.68;;;17.80;73.60;;;;;;5105421;28;20545;-61
2021/07/16 06:41:10;;;;;;;2.15;0.60;;;17.70;73.00;;;;;;5104308;28;20100;-57
2021/07/16 06:43:38;;;;;;;0.95;0.50;;;17.70;72.70;;;;;;5105058;28;20023;-59
2021/07/16 06:46:06;;;;;;;2.13;0.50;;;17.60;73.10;;;;;;5104041;28;20173;-58
2021/07/16 06:48:34;;;;;;;3.85;0.50;;;17.60;73.10;;;;;;5105448;28;20145;-58
2021/07/16 06:51:01;;;;;;;1.00;0.50;;;17.50;74.00;;;;;;5105206;28;20026;-58
2021/07/16 06:53:29;;;;;;;1.95;0.47;;;17.50;74.60;;;;;;5105419;28;20618;-58
2021/07/16 06:55:56;;;;;;;7.15;0.82;;;17.50;74.20;;;;;;5086324;28;20027;-61
2021/07/16 06:58:23;;;;;;;6.57;0.60;;;17.40;73.50;;;;;;5104859;28;20533;-59
2021/07/16 07:00:51;;;;;;;1.25;0.43;;;17.40;74.40;;;;;;5105097;28;20039;-58
2021/07/16 07:03:18;;;;;;;1.25;0.45;;;17.30;74.00;;;;;;5105027;28;20027;-60
2021/07/16 07:05:45;;;;;;;0.95;0.50;;;17.30;74.50;;;;;;5104125;28;20038;-59
2021/07/16 07:08:13;;;;;;;1.42;0.70;;;17.30;74.20;;;;;;5104595;28;20050;-59
2021/07/16 07:10:40;;;;;;;1.00;0.30;;;17.30;74.30;;;;;;5104190;28;20044;-58
2021/07/16 07:13:08;;;;;;;2.90;0.60;;;17.20;73.90;;;;;;5104660;28;20035;-58
2021/07/16 07:15:36;;;;;;;1.38;0.35;;;17.20;73.80;;;;;;5104418;28;20040;-59
2021/07/16 07:18:05;;;;;;;1.15;0.50;;;17.10;73.70;;;;;;5104832;28;20035;-60
2021/07/16 07:20:34;;;;;;;1.58;0.47;;;17.10;74.30;;;;;;5102641;28;20487;-54
2021/07/16 07:23:03;;;;;;;2.63;0.45;;;17.10;74.70;;;;;;5104791;28;20107;-54
2021/07/16 07:25:31;;;;;;;2.45;0.47;;;17.10;74.90;;;;;;5087212;28;20028;-57
2021/07/16 07:27:59;;;;;;;5.07;0.70;;;17.00;74.90;;;;;;5085357;28;20083;-55
2021/07/16 07:30:26;;;;;;;3.10;0.57;;;17.00;75.00;;;;;;5085219;28;20044;-55
2021/07/16 07:32:53;;;;;;;5.03;0.45;;;16.90;75.20;;;;;;5084727;28;20495;-53
2021/07/16 07:35:21;;;;;;;1.08;0.60;;;16.90;75.10;;;;;;5090312;28;20018;-55
2021/07/16 07:37:48;;;;;;;2.05;0.60;;;16.90;75.00;;;;;;5099477;28;20020;-52
2021/07/16 07:40:17;;;;;;;1.83;0.50;;;16.90;74.70;;;;;;5084284;28;20024;-52
2021/07/16 07:42:45;;;;;;;3.60;0.60;;;16.80;74.80;;;;;;5084329;28;20028;-53
2021/07/16 07:45:13;;;;;;;0.85;0.40;;;16.80;74.90;;;;;;5066036;28;20679;-53
2021/07/16 07:47:41;;;;;;;4.20;0.70;;;16.80;74.30;;;;;;5065919;28;20031;-57
2021/07/16 07:50:19;;;;;;;4.03;0.80;;;16.70;74.40;;;;;;5084972;28;20483;-57
2021/07/16 07:52:48;;;;;;;3.13;0.90;;;16.70;75.00;;;;;;5096598;28;20077;-58
2021/07/16 07:55:18;;;;;;;2.13;0.57;;;16.70;74.90;;;;;;5084438;28;20055;-59
2021/07/16 07:57:46;;;;;;;4.70;1.00;;;16.60;74.60;;;;;;5084544;28;20354;-54
2021/07/16 08:00:19;;;;;;;2.95;0.63;;;16.60;74.80;;;;;;5084144;28;20038;-59
2021/07/16 08:02:47;;;;;;;4.00;0.90;;;16.60;74.40;;;;;;5100572;28;20039;-59
2021/07/16 08:05:15;;;;;;;2.25;0.93;;;16.50;74.40;;;;;;5104061;28;20031;-57
2021/07/16 08:07:43;;;;;;;1.65;0.40;;;16.50;74.40;;;;;;5104364;28;20034;-57
2021/07/16 08:10:17;;;;;;;0.32;0.32;;;16.50;74.30;;;;;;5084861;28;20040;-57
2021/07/16 08:12:45;;;;;;;3.53;0.50;;;16.50;74.60;;;;;;5065828;28;20032;-59
2021/07/16 08:15:15;;;;;;;2.33;0.32;;;16.40;74.30;;;;;;5084198;28;20431;-55
2021/07/16 08:17:43;;;;;;;1.33;0.52;;;16.40;74.60;;;;;;5085882;28;20032;-59
2021/07/16 08:20:11;;;;;;;1.00;0.40;;;16.40;74.50;;;;;;5091608;28;20082;-54
2021/07/16 08:22:40;;;;;;;0.93;0.45;;;16.40;74.20;;;;;;5110396;28;20104;-60
2021/07/16 08:25:08;;;;;;;1.48;0.47;;;16.30;74.40;;;;;;5111659;28;20028;-59
2021/07/16 08:27:35;;;;;;;8.50;0.47;;;16.30;74.30;;;;;;5112560;28;20059;-58
2021/07/16 08:30:04;;;;;;;1.48;0.50;;;16.30;74.40;;;;;;5112496;28;20123;-55
2021/07/16 08:32:31;;;;;;;2.20;0.60;;;16.30;74.80;;;;;;5112596;28;20031;-59
2021/07/16 08:34:59;;;;;;;3.70;0.65;;;16.30;74.80;;;;;;5112204;28;20028;-53
2021/07/16 08:37:26;;;;;;;9.10;0.95;;;16.30;74.90;;;;;;5112592;28;20743;-60
2021/07/16 08:39:57;;;;;;;1.55;0.57;;;16.30;74.70;;;;;;5112461;28;20031;-57
2021/07/16 08:42:26;;;;;;;2.78;0.55;;;16.30;74.60;;;;;;5112875;28;20397;-56
2021/07/16 08:44:54;;;;;;;3.35;0.55;;;16.20;74.60;;;;;;5094251;28;20379;-59
2021/07/16 08:47:22;;;;;;;2.38;0.50;;;16.20;74.00;;;;;;5112060;28;20031;-60
2021/07/16 08:49:49;;;;;;;1.70;0.70;;;16.20;73.30;;;;;;5111400;28;20367;-56
2021/07/16 08:52:18;;;;;;;3.08;0.88;;;16.20;74.00;;;;;;5112081;28;20102;-56
2021/07/16 08:54:47;;;;;;;3.22;0.45;;;16.20;73.50;;;;;;5112116;28;20035;-58
2021/07/16 08:57:16;;;;;;;1.05;0.70;;;16.20;73.80;;;;;;5112312;28;20023;-57
2021/07/16 08:59:44;;;;;;;1.55;0.47;;;16.20;73.50;;;;;;5112244;28;20028;-55
2021/07/16 09:02:11;;;;;;;1.77;0.50;;;16.10;73.80;;;;;;5093060;28;20027;-57
2021/07/16 09:04:41;;;;;;;2.10;0.60;;;16.10;74.20;;;;;;5109692;28;20028;-60
2021/07/16 09:07:09;;;;;;;4.43;0.70;;;16.10;74.40;;;;;;5093902;27;20733;-59
2021/07/16 09:09:39;;;;;;;3.85;0.50;;;16.10;74.70;;;;;;5104693;28;20046;-54
2021/07/16 09:12:12;;;;;;;0.70;0.50;;;16.10;74.90;;;;;;5101073;28;20036;-59
2021/07/16 09:14:43;;;;;;;2.45;0.70;;;16.10;74.90;;;;;;5097104;28;20150;-59
2021/07/16 09:17:16;;;;;;;0.77;0.57;;;16.10;74.70;;;;;;5103130;28;20194;-58
2021/07/16 09:19:53;;;;;;;4.60;0.50;;;16.10;74.40;;;;;;5102743;28;20513;-52
2021/07/16 09:22:22;;;;;;;3.88;1.13;;;16.10;74.40;;;;;;5098069;28;20035;-60
2021/07/16 09:25:03;;;;;;;2.67;0.85;;;16.10;74.00;;;;;;5091220;28;20032;-58
2021/07/16 09:27:35;;;;;;;1.02;0.30;;;16.10;74.10;;;;;;5099962;28;20043;-58
2021/07/16 09:30:21;;;;;;;3.42;0.50;;;16.10;74.30;;;;;;5093901;28;20573;-54
2021/07/16 09:32:53;;;;;;;1.95;0.50;;;16.10;73.80;;;;;;5098665;28;20055;-54
2021/07/16 09:35:32;;;;;;;0.88;0.55;;;16.10;73.80;;;;;;5099158;28;20462;-57
2021/07/16 09:38:15;;;;;;;1.25;0.50;;;16.10;73.60;;;;;;5082775;28;20049;-58
2021/07/16 09:40:45;;;;;;;;;;;16.10;73.00;;;;;;5102555;28;20024;-52
2021/07/16 09:43:17;;;;;;;2.45;0.65;;;16.20;73.60;;;;;;5097068;28;19932;-53
2021/07/16 09:46:05;;;;;;;1.38;0.55;;;16.10;73.60;;;;;;5097666;28;20490;-54
2021/07/16 09:48:37;;;;;;;1.83;0.65;;;16.10;73.70;;;;;;5105957;28;20035;-55
2021/07/16 09:51:23;;;;;;;1.13;0.50;;;16.10;73.50;;;;;;5096783;28;20241;-60
2021/07/16 09:54:06;;;;;;;0.88;0.50;;;16.10;73.60;;;;;;5091126;28;20031;-56
2021/07/16 09:56:38;;;;;;;3.40;0.75;;;16.20;73.30;;;;;;5096357;28;20066;-58
2021/07/16 09:59:17;;;;;;;0.70;0.35;;;16.20;73.30;;;;;;5098831;28;20024;-59
2021/07/16 10:01:48;;;;;;;2.13;0.63;;;16.20;73.30;;;;;;5095935;28;20516;-56
2021/07/16 10:04:23;;;;;;;0.50;0.32;;;16.10;73.40;;;;;;5101094;28;20038;-58
2021/07/16 10:06:55;;;;;;;1.80;0.50;;;16.10;73.70;;;;;;5097214;28;20038;-60
2021/07/16 10:09:24;;;;;;;3.20;0.50;;;16.10;73.20;;;;;;5102439;28;20032;-60
2021/07/16 10:11:56;;;;;;;2.00;0.60;;;16.10;72.70;;;;;;5095825;28;20085;-57
2021/07/16 10:14:24;;;;;;;0.68;0.30;;;16.10;73.20;;;;;;5096777;28;20044;-56
2021/07/16 10:16:53;;;;;;;1.75;0.55;;;16.10;73.10;;;;;;5097058;28;20024;-57
2021/07/16 10:19:21;;;;;;;1.15;0.60;;;16.10;73.00;;;;;;5100633;28;20461;-58
2021/07/16 10:21:51;;;;;;;1.85;0.50;;;16.10;73.10;;;;;;5098130;28;20381;-55
2021/07/16 10:24:21;;;;;;;1.27;0.45;;;16.10;73.00;;;;;;5095374;28;20043;-53
2021/07/16 10:26:52;;;;;;;4.80;1.42;;;16.10;73.70;;;;;;5095125;28;20035;-58
2021/07/16 10:29:46;;;;;;;1.55;1.10;;;16.10;73.30;;;;;;5101765;28;20044;-58
2021/07/16 10:32:33;;;;;;;2.90;1.70;;;16.10;73.20;;;;;;5094645;28;20038;-58
2021/07/16 10:35:35;;;;;;;4.88;2.30;;;16.10;72.80;;;;;;5081108;28;20133;-57
2021/07/16 10:38:05;;;;;;;6.32;2.83;;;16.10;73.00;;;;;;5099898;28;20466;-57
2021/07/16 10:40:46;;;;;;;5.38;3.13;;;16.10;72.70;;;;;;5098247;28;20485;-59
2021/07/16 10:43:28;;;;;;;4.28;2.97;;;16.10;73.10;;;;;;5097271;28;20151;-58
2021/07/16 10:45:57;;;;;;;5.70;3.00;;;16.10;72.80;;;;;;5100523;28;20747;-54
2021/07/16 10:48:33;;;;;;;6.55;3.83;;;16.10;73.00;;;;;;5102989;28;20047;-58
2021/07/16 10:51:03;;;;;;;7.15;3.95;;;16.10;73.00;;;;;;5102889;28;20062;-58
2021/07/16 10:53:30;;;;;;;6.68;4.03;;;16.10;72.90;;;;;;5099222;28;20049;-56
2021/07/16 10:55:57;;;;;;;6.60;3.88;;;16.10;72.90;;;;;;5102872;28;20042;-54
2021/07/16 10:58:40;;;;;;;6.10;4.15;;;16.10;72.80;;;;;;5099665;28;20692;-56
2021/07/16 11:01:08;;;;;;;8.45;4.10;;;16.00;72.50;;;;;;5077549;28;20032;-57
2021/07/16 11:03:49;;;;;;;8.32;5.40;;;16.10;72.80;;;;;;5094656;28;20084;-55
2021/07/16 11:06:19;;;;;;;7.22;4.00;;;16.10;72.60;;;;;;5102322;28;20427;-60
2021/07/16 11:08:47;;;;;;;6.63;4.85;;;16.10;72.70;;;;;;5097186;28;20034;-57
2021/07/16 11:11:35;;;;;;;9.18;4.72;;;16.00;72.70;;;;;;5096542;28;20082;-54
2021/07/16 11:14:04;;;;;;;9.00;4.38;;;16.00;72.50;;;;;;5092459;28;20051;-56
2021/07/16 11:16:32;;;;;;;7.13;4.40;;;16.00;72.40;;;;;;5095626;28;20055;-57
2021/07/16 11:19:14;;;;;;;10.48;5.50;;;16.00;72.20;;;;;;5094264;28;20047;-58
2021/07/16 11:21:41;;;;;;;;;;;16.00;72.40;;;;;;5096024;28;20084;-56
2021/07/16 11:24:24;;;;;;;9.27;4.78;;;16.00;72.40;;;;;;5098014;28;20368;-52
2021/07/16 11:27:15;;;;;;;7.78;4.85;;;16.00;72.40;;;;;;5099274;28;20047;-56
2021/07/16 11:29:50;;;;;;;5.80;4.47;;;16.00;72.90;;;;;;5095850;28;20039;-56
2021/07/16 11:32:30;;;;;;;7.68;4.63;;;16.00;72.40;;;;;;5100099;28;20039;-59
2021/07/16 11:35:01;;;;;;;7.45;4.60;;;16.00;72.90;;;;;;5103985;28;20060;-56
2021/07/16 11:37:45;;;;;;;10.32;4.90;;;16.00;72.50;;;;;;5103037;28;20047;-60
2021/07/16 11:40:23;;;;;;;8.10;5.20;;;16.00;72.60;;;;;;5104572;28;20049;-59
2021/07/16 11:42:59;;;;;;;9.10;5.55;;;16.00;72.50;;;;;;5103616;28;20150;-58
2021/07/16 11:45:30;;;;;;;8.15;5.00;;;16.00;72.50;;;;;;5106682;28;20036;-60
2021/07/16 11:48:00;;;;;;;9.63;4.95;;;16.00;72.10;;;;;;5106388;28;20063;-59
2021/07/16 11:50:27;;;;;;;7.40;5.00;;;16.00;72.30;;;;;;5107013;28;20218;-54
2021/07/16 11:52:56;;;;;;;7.72;5.07;;;16.00;72.20;;;;;;5102366;28;20118;-59
2021/07/16 11:55:29;;;;;;;10.82;5.75;;;16.00;72.20;;;;;;5104453;28;20427;-60
2021/07/16 11:57:58;;;;;;;7.88;4.95;;;16.00;72.40;;;;;;5102296;28;20507;-53
2021/07/16 12:00:27;;;;;;;9.07;4.90;;;16.00;72.30;;;;;;5102470;28;20032;-56
2021/07/16 12:03:18;;;;;;;7.50;5.18;;;16.00;72.00;;;;;;5096824;28;20027;-59
2021/07/16 12:05:51;;;;;;;7.88;4.40;;;16.00;72.10;;;;;;5100333;28;20417;-57
2021/07/16 12:08:28;;;;;;;7.35;4.93;;;16.00;72.00;;;;;;5099586;28;20030;-52
2021/07/16 12:11:07;;;;;;;7.47;4.80;;;15.90;72.20;;;;;;5095368;28;20110;-55
2021/07/16 12:13:36;;;;;;;7.43;4.40;;;16.00;72.20;;;;;;5090615;28;20020;-53
2021/07/16 12:16:09;;;;;;;8.75;4.47;;;15.90;72.00;;;;;;5096922;28;20398;-52
2021/07/16 12:18:39;;;;;;;8.65;5.18;;;15.90;72.30;;;;;;5094899;28;20118;-54
2021/07/16 12:21:09;;;;;;;7.05;4.65;;;15.90;72.10;;;;;;5095410;28;20031;-54
2021/07/16 12:23:37;;;;;;;7.15;4.50;;;15.90;72.60;;;;;;5095814;28;20028;-53
2021/07/16 12:26:24;;;;;;;8.40;4.22;;;15.90;71.70;;;;;;5089062;28;20031;-55
2021/07/16 12:29:05;;;;;;;6.20;4.22;;;15.90;71.90;;;;;;5095272;28;20047;-51
2021/07/16 12:31:34;;;;;;;6.13;4.00;;;15.90;72.10;;;;;;5092870;28;20101;-55
2021/07/16 12:34:02;;;;;;;8.40;4.88;;;15.90;71.60;;;;;;5077947;28;20050;-54
2021/07/16 12:36:33;;;;;;;6.40;4.57;;;15.90;72.10;;;;;;5070097;28;20062;-55
2021/07/16 12:39:01;;;;;;;6.90;4.38;;;15.90;71.90;;;;;;5099515;28;20081;-50
2021/07/16 12:41:29;;;;;;;7.13;4.00;;;15.90;71.90;;;;;;5098753;28;20038;-52
2021/07/16 12:44:10;;;;;;;5.05;3.65;;;15.90;71.70;;;;;;5099504;28;20474;-54
2021/07/16 12:46:37;;;;;;;6.32;4.10;;;15.90;72.00;;;;;;5092063;28;20107;-61
2021/07/16 12:49:12;;;;;;;9.27;3.92;;;15.90;72.50;;;;;;5098948;28;20036;-49
2021/07/16 12:51:40;;;;;;;6.72;4.05;;;15.90;71.60;;;;;;5103708;28;20108;-60
2021/07/16 12:54:19;;;;;;;6.68;3.63;;;15.90;71.80;;;;;;5100158;28;20052;-57
2021/07/16 12:56:46;;;;;;;7.80;4.35;;;15.80;72.50;;;;;;5099659;28;20161;-58
2021/07/16 12:59:30;;;;;;;6.45;3.55;;;15.80;72.10;;;;;;5096576;28;20519;-61
2021/07/16 13:01:59;;;;;;;7.15;3.63;;;15.90;71.90;;;;;;5093882;28;20050;-54